createdAt,value
2023-10-26T00:02:06.474Z,23.40
2023-10-26T00:04:38.522Z,24.00
2023-10-26T00:07:07.635Z,24.70
2023-10-26T00:09:35.798Z,26.50
2023-10-26T00:12:04.570Z,28.00
2023-10-26T00:14:40.073Z,26.60
2023-10-26T00:17:08.846Z,23.30
2023-10-26T00:19:37.499Z,23.40
2023-10-26T00:22:05.588Z,23.90
2023-10-26T00:24:35.293Z,32.70
2023-10-26T00:27:03.663Z,28.50
2023-10-26T00:29:36.337Z,26.80
2023-10-26T00:32:07.603Z,24.00
2023-10-26T00:34:35.779Z,28.80
2023-10-26T00:37:04.233Z,26.70
2023-10-26T00:39:32.713Z,24.90
2023-10-26T00:42:01.046Z,26.40
2023-10-26T00:44:29.072Z,27.40
2023-10-26T00:46:58.711Z,29.40
2023-10-26T00:49:26.955Z,26.00
2023-10-26T00:52:01.028Z,25.90
2023-10-26T00:54:29.408Z,24.80
2023-10-26T00:56:58.187Z,23.50
2023-10-26T00:59:28.969Z,23.90
2023-10-26T01:01:57.545Z,25.70
2023-10-26T01:04:25.426Z,26.80
2023-10-26T01:06:53.376Z,24.00
2023-10-26T01:09:22.456Z,23.90
2023-10-26T01:11:50.409Z,26.70
2023-10-26T01:14:18.749Z,26.00
2023-10-26T01:16:46.648Z,25.60
2023-10-26T01:19:14.497Z,25.80
2023-10-26T01:21:49.174Z,22.10
2023-10-26T01:24:17.069Z,25.80
2023-10-26T01:26:45.270Z,24.50
2023-10-26T01:29:13.390Z,24.20
2023-10-26T01:31:41.366Z,23.90
2023-10-26T01:34:09.386Z,25.40
2023-10-26T01:36:37.300Z,27.20
2023-10-26T01:39:05.543Z,29.10
2023-10-26T01:41:33.800Z,25.80
2023-10-26T01:44:02.520Z,24.50
2023-10-26T01:46:30.415Z,23.90
2023-10-26T01:49:00.673Z,24.30
2023-10-26T01:51:28.979Z,26.10
2023-10-26T01:53:56.982Z,46.60
2023-10-26T01:56:24.936Z,29.60
2023-10-26T01:58:53.024Z,33.40
2023-10-26T02:01:21.166Z,30.40
2023-10-26T02:03:49.420Z,26.60
2023-10-26T02:06:17.494Z,24.20
2023-10-26T02:08:45.793Z,22.60
2023-10-26T02:11:14.065Z,20.80
2023-10-26T02:13:42.130Z,21.70
2023-10-26T02:16:10.505Z,22.60
2023-10-26T02:18:38.553Z,20.70
2023-10-26T02:21:07.660Z,23.40
2023-10-26T02:23:36.057Z,23.20
2023-10-26T02:26:04.442Z,24.70
2023-10-26T02:28:32.529Z,23.20
2023-10-26T02:31:01.395Z,22.10
2023-10-26T02:33:29.511Z,25.60
2023-10-26T02:35:57.774Z,23.20
2023-10-26T02:38:26.010Z,26.10
2023-10-26T02:40:54.272Z,25.10
2023-10-26T02:43:22.292Z,25.70
2023-10-26T02:46:00.283Z,24.70
2023-10-26T02:48:28.334Z,25.80
2023-10-26T02:50:56.985Z,27.20
2023-10-26T02:53:25.295Z,26.00
2023-10-26T02:55:53.506Z,25.10
2023-10-26T02:58:21.766Z,25.80
2023-10-26T03:00:50.080Z,29.30
2023-10-26T03:03:18.474Z,28.60
2023-10-26T03:05:46.591Z,31.60
2023-10-26T03:08:14.506Z,32.20
2023-10-26T03:10:42.638Z,29.10
2023-10-26T03:13:12.060Z,29.50
2023-10-26T03:15:40.006Z,28.80
2023-10-26T03:18:08.759Z,26.40
2023-10-26T03:20:36.969Z,32.90
2023-10-26T03:23:05.218Z,29.20
2023-10-26T03:25:33.702Z,30.30
2023-10-26T03:28:01.674Z,28.20
2023-10-26T03:30:29.812Z,33.70
2023-10-26T03:32:58.642Z,27.30
2023-10-26T03:35:26.834Z,27.40
2023-10-26T03:37:55.312Z,42.50
2023-10-26T03:40:23.285Z,40.00
2023-10-26T03:42:51.339Z,47.50
2023-10-26T03:45:19.395Z,37.60
2023-10-26T03:47:47.676Z,33.90
2023-10-26T03:50:15.965Z,33.30
2023-10-26T03:52:44.052Z,66.00
2023-10-26T03:55:12.130Z,32.00
2023-10-26T03:57:41.440Z,34.30
2023-10-26T04:00:11.102Z,35.10
2023-10-26T04:02:39.252Z,49.60
2023-10-26T04:05:08.167Z,51.40
2023-10-26T04:07:36.054Z,51.10
2023-10-26T04:10:07.061Z,32.40
2023-10-26T04:12:35.506Z,28.90
2023-10-26T04:15:04.650Z,26.80
2023-10-26T04:17:32.824Z,26.30
2023-10-26T04:20:01.087Z,25.90
2023-10-26T04:22:29.097Z,25.20
2023-10-26T04:24:57.633Z,30.40
2023-10-26T04:27:26.241Z,28.90
2023-10-26T04:29:54.372Z,27.30
2023-10-26T04:32:22.598Z,27.90
2023-10-26T04:34:52.180Z,28.90
2023-10-26T04:37:20.758Z,29.00
2023-10-26T04:39:48.838Z,25.50
2023-10-26T04:42:16.914Z,27.70
2023-10-26T04:44:45.784Z,27.10
2023-10-26T04:47:14.247Z,24.50
2023-10-26T04:49:42.862Z,27.10
2023-10-26T04:52:15.750Z,23.20
2023-10-26T04:54:43.889Z,23.70
2023-10-26T04:57:11.959Z,26.20
2023-10-26T04:59:39.953Z,25.10
2023-10-26T05:02:08.353Z,24.60
2023-10-26T05:04:36.929Z,23.30
2023-10-26T05:07:05.395Z,27.60
2023-10-26T05:09:33.970Z,23.10
2023-10-26T05:12:02.124Z,24.60
2023-10-26T05:14:30.246Z,23.60
2023-10-26T05:16:58.283Z,24.00
2023-10-26T05:19:26.555Z,26.80
2023-10-26T05:21:54.659Z,25.80
2023-10-26T05:24:22.772Z,22.30
2023-10-26T05:26:51.702Z,22.10
2023-10-26T05:29:19.861Z,25.50
2023-10-26T05:31:48.489Z,21.20
2023-10-26T05:34:16.511Z,23.30
2023-10-26T05:36:44.607Z,23.50
2023-10-26T05:39:12.595Z,24.00
2023-10-26T05:41:40.545Z,23.20
2023-10-26T05:44:08.595Z,25.20
2023-10-26T05:46:37.582Z,23.80
2023-10-26T05:49:06.394Z,21.70
2023-10-26T05:51:34.274Z,22.70
2023-10-26T05:54:02.633Z,24.10
2023-10-26T05:56:31.313Z,25.00
2023-10-26T05:58:59.228Z,24.60
2023-10-26T06:01:28.046Z,23.10
2023-10-26T06:03:56.751Z,23.10
2023-10-26T06:06:24.772Z,25.20
2023-10-26T06:08:52.892Z,26.10
2023-10-26T06:11:20.952Z,30.70
2023-10-26T06:13:49.596Z,24.60
2023-10-26T06:16:18.689Z,24.90
2023-10-26T06:18:46.829Z,24.60
2023-10-26T06:21:15.621Z,26.40
2023-10-26T06:23:45.613Z,26.40
2023-10-26T06:26:13.673Z,24.90
2023-10-26T06:28:41.771Z,27.00
2023-10-26T06:31:10.886Z,28.60
2023-10-26T06:33:39.615Z,25.70
2023-10-26T06:36:08.162Z,25.70
2023-10-26T06:38:36.134Z,26.30
2023-10-26T06:41:04.468Z,26.90
2023-10-26T06:43:32.461Z,41.10
2023-10-26T06:46:01.655Z,26.40
2023-10-26T06:48:30.306Z,26.50
2023-10-26T06:51:02.750Z,24.80
2023-10-26T06:53:31.079Z,24.20
2023-10-26T06:55:59.802Z,28.70
2023-10-26T06:58:28.967Z,26.30
2023-10-26T07:00:56.986Z,24.50
2023-10-26T07:03:25.971Z,27.20
2023-10-26T07:05:54.485Z,23.80
2023-10-26T07:08:22.781Z,25.90
2023-10-26T07:10:51.139Z,108.20
2023-10-26T07:13:19.434Z,25.30
2023-10-26T07:15:48.242Z,26.30
2023-10-26T07:18:19.779Z,24.20
2023-10-26T07:20:50.601Z,24.90
2023-10-26T07:23:19.499Z,24.20
2023-10-26T07:25:48.716Z,23.30
2023-10-26T07:28:18.227Z,24.10
2023-10-26T07:30:52.177Z,23.70
2023-10-26T07:33:21.495Z,27.10
2023-10-26T07:35:51.936Z,24.40
2023-10-26T07:38:36.727Z,22.90
2023-10-26T07:41:06.849Z,23.70
2023-10-26T07:43:36.027Z,22.10
2023-10-26T07:46:05.192Z,25.30
2023-10-26T07:48:34.351Z,24.30
2023-10-26T07:51:02.273Z,24.10
2023-10-26T07:53:30.672Z,20.90
2023-10-26T07:55:59.536Z,19.60
2023-10-26T07:58:30.554Z,21.10
2023-10-26T08:00:58.852Z,20.50
2023-10-26T08:03:30.180Z,19.30
2023-10-26T08:05:59.073Z,19.70
2023-10-26T08:08:28.067Z,20.80
2023-10-26T08:10:58.453Z,19.00
2023-10-26T08:13:26.403Z,21.30
2023-10-26T08:16:11.817Z,18.10
2023-10-26T08:18:44.864Z,19.30
2023-10-26T08:21:14.818Z,18.70
2023-10-26T08:23:42.796Z,15.80
2023-10-26T08:26:11.882Z,15.30
2023-10-26T08:28:42.851Z,15.10
2023-10-26T08:31:11.007Z,14.40
2023-10-26T08:33:39.694Z,15.90
2023-10-26T08:36:08.184Z,16.10
2023-10-26T08:38:37.598Z,14.40
2023-10-26T08:41:08.188Z,11.40
2023-10-26T08:43:36.616Z,14.00
2023-10-26T08:46:05.601Z,12.80
2023-10-26T08:48:35.888Z,9.90
2023-10-26T08:51:04.500Z,11.20
2023-10-26T08:53:33.461Z,10.70
2023-10-26T08:56:02.096Z,10.90
2023-10-26T08:58:30.139Z,10.60
2023-10-26T09:00:59.547Z,9.80
2023-10-26T09:03:28.333Z,12.30
2023-10-26T09:05:57.482Z,8.10
2023-10-26T09:08:28.676Z,9.20
2023-10-26T09:10:57.845Z,7.20
2023-10-26T09:13:27.220Z,7.90
2023-10-26T09:15:58.909Z,7.30
2023-10-26T09:18:27.444Z,7.10
2023-10-26T09:21:06.262Z,6.30
2023-10-26T09:23:35.639Z,5.30
2023-10-26T09:26:11.119Z,5.90
2023-10-26T09:28:51.886Z,5.50
2023-10-26T09:31:20.396Z,5.60
2023-10-26T09:33:49.984Z,4.60
2023-10-26T09:36:22.347Z,4.10
2023-10-26T09:38:51.185Z,4.70
2023-10-26T09:41:20.766Z,5.40
2023-10-26T09:43:49.650Z,3.60
2023-10-26T09:46:21.863Z,3.40
2023-10-26T09:48:50.670Z,2.60
2023-10-26T09:51:20.209Z,5.60
2023-10-26T09:53:49.779Z,3.70
2023-10-26T09:56:27.586Z,4.80
2023-10-26T09:58:56.130Z,3.80
2023-10-26T10:01:38.892Z,5.90
2023-10-26T10:04:08.948Z,8.70
2023-10-26T10:06:44.833Z,6.20
2023-10-26T10:09:13.802Z,5.80
2023-10-26T10:11:42.004Z,7.00
2023-10-26T10:14:10.211Z,5.20
2023-10-26T10:16:38.695Z,4.00
2023-10-26T10:19:16.969Z,3.60
2023-10-26T10:21:45.764Z,3.50
2023-10-26T10:24:34.127Z,3.00
2023-10-26T10:27:09.823Z,2.50
2023-10-26T10:29:38.517Z,3.20
2023-10-26T10:32:06.916Z,3.30
2023-10-26T10:34:44.021Z,3.90
2023-10-26T10:40:01.314Z,3.30
2023-10-26T10:42:31.140Z,3.30
2023-10-26T10:44:59.642Z,3.80
2023-10-26T10:47:29.036Z,3.40
2023-10-26T10:50:16.899Z,4.20
2023-10-26T10:52:45.698Z,3.40
2023-10-26T10:55:18.944Z,5.30
2023-10-26T10:58:01.020Z,3.60
2023-10-26T11:00:42.774Z,5.20
2023-10-26T11:03:17.613Z,2.90
2023-10-26T11:05:46.944Z,4.80
2023-10-26T11:08:15.404Z,4.60
2023-10-26T11:10:49.071Z,3.40
2023-10-26T11:13:20.907Z,5.70
2023-10-26T11:15:49.924Z,2.80
2023-10-26T11:18:20.602Z,3.80
2023-10-26T11:20:48.996Z,2.80
2023-10-26T11:23:20.944Z,2.40
2023-10-26T11:25:49.916Z,6.60
2023-10-26T11:28:34.013Z,3.00
2023-10-26T11:31:02.659Z,2.00
2023-10-26T11:33:31.522Z,1.90
2023-10-26T11:36:00.609Z,4.00
2023-10-26T11:38:29.221Z,1.20
2023-10-26T11:40:57.485Z,2.50
2023-10-26T11:43:32.399Z,2.00
2023-10-26T11:46:01.301Z,2.60
2023-10-26T11:48:31.283Z,1.70
2023-10-26T11:50:59.552Z,2.70
2023-10-26T11:53:28.018Z,3.40
2023-10-26T11:55:56.108Z,3.50
2023-10-26T11:58:24.248Z,4.50
2023-10-26T12:00:52.901Z,2.10
2023-10-26T12:03:21.635Z,2.10
2023-10-26T12:05:50.921Z,5.50
2023-10-26T12:08:19.433Z,2.10
2023-10-26T12:10:48.184Z,2.30
2023-10-26T12:13:16.182Z,3.50
2023-10-26T12:15:44.250Z,2.10
2023-10-26T12:18:12.980Z,3.60
2023-10-26T12:20:41.112Z,3.60
2023-10-26T12:23:09.135Z,2.70
2023-10-26T12:25:37.431Z,2.00
2023-10-26T12:28:19.692Z,2.40
2023-10-26T12:30:51.711Z,4.30
2023-10-26T12:33:20.356Z,4.40
2023-10-26T12:35:48.417Z,2.50
2023-10-26T12:38:16.958Z,6.00
2023-10-26T12:40:45.891Z,3.40
2023-10-26T12:43:14.316Z,3.20
2023-10-26T12:45:43.858Z,3.90
2023-10-26T12:48:12.493Z,2.90
2023-10-26T12:50:41.447Z,3.10
2023-10-26T12:53:09.546Z,4.10
2023-10-26T12:55:38.735Z,3.80
2023-10-26T12:58:07.424Z,4.00
2023-10-26T13:00:36.033Z,4.20
2023-10-26T13:03:04.958Z,3.30
2023-10-26T13:05:32.917Z,4.60
2023-10-26T13:08:01.006Z,4.10
2023-10-26T13:10:32.518Z,2.90
2023-10-26T13:13:02.248Z,3.50
2023-10-26T13:15:31.241Z,2.90
2023-10-26T13:17:59.245Z,4.00
2023-10-26T13:20:28.062Z,3.60
2023-10-26T13:22:56.151Z,2.60
2023-10-26T13:25:25.404Z,3.80
2023-10-26T13:27:54.438Z,4.00
2023-10-26T13:30:22.428Z,4.50
2023-10-26T13:32:50.900Z,4.70
2023-10-26T13:35:18.994Z,7.30
2023-10-26T13:37:53.211Z,7.70
2023-10-26T13:40:21.846Z,5.50
2023-10-26T13:42:52.053Z,5.40
2023-10-26T13:45:22.061Z,4.40
2023-10-26T13:47:51.668Z,3.90
2023-10-26T13:50:22.691Z,4.20
2023-10-26T13:52:50.936Z,6.30
2023-10-26T13:55:19.484Z,5.40
2023-10-26T13:57:48.286Z,3.90
2023-10-26T14:00:16.777Z,4.10
2023-10-26T14:02:45.996Z,5.50
2023-10-26T14:05:29.594Z,5.50
2023-10-26T14:08:01.855Z,4.90
2023-10-26T14:10:30.772Z,5.80
2023-10-26T14:12:59.255Z,7.60
2023-10-26T14:15:28.366Z,6.40
2023-10-26T14:17:57.081Z,5.90
2023-10-26T14:20:25.589Z,7.50
2023-10-26T14:22:58.023Z,5.80
2023-10-26T14:25:28.702Z,6.10
2023-10-26T14:27:58.341Z,5.90
2023-10-26T14:30:26.282Z,6.80
2023-10-26T14:32:54.958Z,6.50
2023-10-26T14:35:24.156Z,6.50
2023-10-26T14:37:52.428Z,6.50
2023-10-26T14:40:22.763Z,9.00
2023-10-26T14:42:51.886Z,8.30
2023-10-26T14:45:20.326Z,7.10
2023-10-26T14:47:51.615Z,7.20
2023-10-26T14:50:20.609Z,7.20
2023-10-26T14:52:48.838Z,6.30
2023-10-26T14:55:18.155Z,6.60
2023-10-26T14:57:46.666Z,6.90
2023-10-26T15:00:15.306Z,6.20
2023-10-26T15:02:44.833Z,6.40
2023-10-26T15:05:13.706Z,5.50
2023-10-26T15:07:42.080Z,6.60
2023-10-26T15:10:23.609Z,12.00
2023-10-26T15:12:55.517Z,6.90
2023-10-26T15:15:27.812Z,7.10
2023-10-26T15:17:58.060Z,5.80
2023-10-26T15:20:27.805Z,9.20
2023-10-26T15:22:56.805Z,5.40
2023-10-26T15:25:26.341Z,6.10
2023-10-26T15:27:56.827Z,5.00
2023-10-26T15:30:25.257Z,7.60
2023-10-26T15:32:55.806Z,6.10
2023-10-26T15:35:32.879Z,5.30
2023-10-26T15:38:05.028Z,6.60
2023-10-26T15:40:33.328Z,7.60
2023-10-26T15:43:02.262Z,6.60
2023-10-26T15:45:30.918Z,6.70
2023-10-26T15:48:08.984Z,5.70
2023-10-26T15:50:39.339Z,4.30
2023-10-26T15:53:09.456Z,7.00
2023-10-26T15:55:38.208Z,7.60
2023-10-26T15:58:06.358Z,7.30
2023-10-26T16:00:34.836Z,8.80
2023-10-26T16:03:03.260Z,10.50
2023-10-26T16:05:32.858Z,7.00
2023-10-26T16:08:01.129Z,7.10
2023-10-26T16:10:29.616Z,9.20
2023-10-26T16:12:58.423Z,7.70
2023-10-26T16:15:29.438Z,7.10
2023-10-26T16:17:59.214Z,8.90
2023-10-26T16:20:27.329Z,8.80
2023-10-26T16:22:55.705Z,5.70
2023-10-26T16:25:23.906Z,9.10
2023-10-26T16:27:51.906Z,7.40
2023-10-26T16:30:20.154Z,7.70
2023-10-26T16:32:48.286Z,8.10
2023-10-26T16:35:16.462Z,8.10
2023-10-26T16:37:44.569Z,7.90
2023-10-26T16:40:16.723Z,6.10
2023-10-26T16:42:45.877Z,8.00
2023-10-26T16:45:13.971Z,7.10
2023-10-26T16:47:51.910Z,8.00
2023-10-26T16:50:24.385Z,8.90
2023-10-26T16:52:52.513Z,7.50
2023-10-26T16:55:21.390Z,7.00
2023-10-26T16:57:49.922Z,7.30
2023-10-26T17:00:19.068Z,6.80
2023-10-26T17:02:47.767Z,7.70
2023-10-26T17:05:16.377Z,7.20
2023-10-26T17:07:46.133Z,6.50
2023-10-26T17:10:14.938Z,6.60
2023-10-26T17:12:46.897Z,5.30
2023-10-26T17:15:16.432Z,8.80
2023-10-26T17:17:44.705Z,6.50
2023-10-26T17:20:13.874Z,4.40
2023-10-26T17:22:49.334Z,4.20
2023-10-26T17:25:19.831Z,5.10
2023-10-26T17:27:48.031Z,5.50
2023-10-26T17:30:16.292Z,5.60
2023-10-26T17:32:48.017Z,4.60
2023-10-26T17:35:16.223Z,4.50
2023-10-26T17:37:44.280Z,7.90
2023-10-26T17:40:14.822Z,10.90
2023-10-26T17:42:43.155Z,7.00
2023-10-26T17:45:17.013Z,6.20
2023-10-26T17:47:45.541Z,5.80
2023-10-26T17:50:13.810Z,10.20
2023-10-26T17:52:43.396Z,8.10
2023-10-26T17:55:14.777Z,6.90
2023-10-26T17:57:43.545Z,7.20
2023-10-26T18:00:17.756Z,7.50
2023-10-26T18:02:46.054Z,7.30
2023-10-26T18:05:14.612Z,7.10
2023-10-26T18:07:43.185Z,7.90
2023-10-26T18:10:11.288Z,7.10
2023-10-26T18:12:41.958Z,8.00
2023-10-26T18:15:16.725Z,8.10
2023-10-26T18:17:46.423Z,8.70
2023-10-26T18:20:15.366Z,9.80
2023-10-26T18:22:44.393Z,10.30
2023-10-26T18:25:12.957Z,9.70
2023-10-26T18:27:41.317Z,11.50
2023-10-26T18:30:10.250Z,9.70
2023-10-26T18:32:38.367Z,12.10
2023-10-26T18:35:07.210Z,9.30
2023-10-26T18:37:38.002Z,11.50
2023-10-26T18:40:07.094Z,10.00
2023-10-26T18:42:36.200Z,9.90
2023-10-26T18:45:07.944Z,9.60
2023-10-26T18:47:36.887Z,12.10
2023-10-26T18:50:05.551Z,9.30
2023-10-26T18:52:34.136Z,8.20
2023-10-26T18:55:03.114Z,11.50
2023-10-26T18:57:31.421Z,11.00
2023-10-26T18:59:59.576Z,9.70
2023-10-26T19:02:27.856Z,9.10
2023-10-26T19:04:57.186Z,8.20
2023-10-26T19:07:25.980Z,8.20
2023-10-26T19:09:55.012Z,8.60
2023-10-26T19:12:23.625Z,9.20
2023-10-26T19:14:58.127Z,9.20
2023-10-26T19:17:26.340Z,9.00
2023-10-26T19:19:54.978Z,8.80
2023-10-26T19:22:23.696Z,9.20
2023-10-26T19:24:56.897Z,9.90
2023-10-26T19:27:25.401Z,9.00
2023-10-26T19:29:55.600Z,9.30
2023-10-26T19:32:23.748Z,9.30
2023-10-26T19:34:55.729Z,9.80
2023-10-26T19:37:27.687Z,9.30
2023-10-26T19:39:56.583Z,10.00
2023-10-26T19:42:24.951Z,10.70
2023-10-26T19:44:54.463Z,12.30
2023-10-26T19:47:22.625Z,10.40
2023-10-26T19:49:51.006Z,9.70
2023-10-26T19:52:20.256Z,13.00
2023-10-26T19:54:48.830Z,9.50
2023-10-26T19:57:18.704Z,9.40
2023-10-26T19:59:48.515Z,11.00
2023-10-26T20:02:16.732Z,8.90
2023-10-26T20:04:45.260Z,9.00
2023-10-26T20:07:14.134Z,10.00
2023-10-26T20:09:43.913Z,12.10
2023-10-26T20:12:13.676Z,9.30
2023-10-26T20:14:43.765Z,9.30
2023-10-26T20:17:11.719Z,9.90
2023-10-26T20:19:41.704Z,11.30
2023-10-26T20:22:11.058Z,9.10
2023-10-26T20:24:40.067Z,9.80
2023-10-26T20:27:09.050Z,10.70
2023-10-26T20:29:37.860Z,10.90
2023-10-26T20:32:06.626Z,9.00
2023-10-26T20:34:36.056Z,11.80
2023-10-26T20:37:07.176Z,10.80
2023-10-26T20:39:36.179Z,9.40
2023-10-26T20:42:06.421Z,8.60
2023-10-26T20:44:34.985Z,9.60
2023-10-26T20:47:07.492Z,9.80
2023-10-26T20:49:36.452Z,10.90
2023-10-26T20:52:05.496Z,11.60
2023-10-26T20:54:33.835Z,10.50
2023-10-26T20:57:02.394Z,11.40
2023-10-26T20:59:31.098Z,9.70
2023-10-26T21:02:11.235Z,10.70
2023-10-26T21:04:40.548Z,13.80
2023-10-26T21:07:09.356Z,13.50
2023-10-26T21:09:38.254Z,9.10
2023-10-26T21:12:07.740Z,9.00
2023-10-26T21:14:36.220Z,9.20
2023-10-26T21:17:04.897Z,9.50
2023-10-26T21:19:35.479Z,6.70
2023-10-26T21:22:06.913Z,8.80
2023-10-26T21:24:37.935Z,9.90
2023-10-26T21:27:07.526Z,7.80
2023-10-26T21:29:39.957Z,8.00
2023-10-26T21:32:09.651Z,10.50
2023-10-26T21:34:38.956Z,8.90
2023-10-26T21:37:08.474Z,7.80
2023-10-26T21:39:40.401Z,9.80
2023-10-26T21:42:09.471Z,8.00
2023-10-26T21:44:37.544Z,7.30
2023-10-26T21:47:05.841Z,6.70
2023-10-26T21:49:34.250Z,7.80
2023-10-26T21:52:02.625Z,6.00
2023-10-26T21:54:31.255Z,6.80
2023-10-26T21:57:04.545Z,6.90
2023-10-26T21:59:38.455Z,6.20
2023-10-26T22:02:09.292Z,8.30
2023-10-26T22:04:37.669Z,8.30
2023-10-26T22:07:06.308Z,6.30
2023-10-26T22:09:44.865Z,7.10
2023-10-26T22:12:20.827Z,6.30
2023-10-26T22:14:49.029Z,6.10
2023-10-26T22:17:17.301Z,6.20
2023-10-26T22:19:46.016Z,5.30
2023-10-26T22:22:15.169Z,5.80
2023-10-26T22:24:43.938Z,5.70
2023-10-26T22:27:11.928Z,5.00
2023-10-26T22:29:40.921Z,6.90
2023-10-26T22:32:09.274Z,5.90
2023-10-26T22:34:37.466Z,6.40
2023-10-26T22:37:05.803Z,7.30
2023-10-26T22:39:33.894Z,6.70
2023-10-26T22:42:02.589Z,7.40
2023-10-26T22:44:30.863Z,7.40
2023-10-26T22:46:59.035Z,6.50
2023-10-26T22:49:27.435Z,6.40
2023-10-26T22:51:57.145Z,5.00
2023-10-26T22:54:25.525Z,7.00
2023-10-26T22:56:53.426Z,8.70
2023-10-26T22:59:22.047Z,6.30
2023-10-26T23:01:51.252Z,9.30
2023-10-26T23:04:19.719Z,6.80
2023-10-26T23:06:48.026Z,8.30
2023-10-26T23:09:17.250Z,7.70
2023-10-26T23:11:45.601Z,5.80
2023-10-26T23:14:13.767Z,6.80
2023-10-26T23:16:47.526Z,6.40
2023-10-26T23:19:18.836Z,11.10
2023-10-26T23:21:47.698Z,11.20
2023-10-26T23:24:15.874Z,8.70
2023-10-26T23:26:44.857Z,6.30
2023-10-26T23:29:13.237Z,8.20
2023-10-26T23:31:46.318Z,7.20
2023-10-26T23:34:14.862Z,7.20
2023-10-26T23:36:43.287Z,7.20
2023-10-26T23:39:11.354Z,6.40
2023-10-26T23:41:39.565Z,8.10
2023-10-26T23:44:07.943Z,8.10
2023-10-26T23:46:36.220Z,8.60
2023-10-26T23:49:04.591Z,8.50
2023-10-26T23:51:32.852Z,7.50
2023-10-26T23:54:03.174Z,10.50
2023-10-26T23:56:31.358Z,7.50
2023-10-26T23:58:59.811Z,6.30
